tititudorancea.com
Station Historical Data
 
Daily Summary for August 24, 2016 Units:  Metric    English   Both
« Previous Day
Next Day »
Daily Weekly Monthly Yearly Custom
  Current: High: Low: Average:
Temperature: 5.4 °C 11.9 °C 1.4 °C 6.6 °C
Dew Point: 4.9 °C 7.9 °C 1.1 °C 4.7 °C
Humidity: 97 % 99 % 59 % 89 %
Wind Speed: 3.5 km/h 14.8 km/h 0 km/h 4.5 km/h
Wind Gust: 11.1 km/h 25.6 km/h - -
Wind:South - - SSW
Pressure: 1021.2 hPa 1023.6 hPa 1019.9 hPa -
Precipitation: 0 mm      
Historical Graphs
 
 
Ararat weather Find more about Weather in Ararat, AU


 



 


Tabular Data for August 24, 2016
Time Temperature Dew Point Pressure Wind Wind Speed Wind Gust Humidity Rainfall Rate (Hourly)
00:01 5.3 °C 3.4 °C 1023.6 hPa SSW 2.6 km/h 7.2 km/h 88 % 0 mm
00:06 5.3 °C 3.4 °C 1023.6 hPa SSW 2.6 km/h 7.2 km/h 88 % 0 mm
00:11 5.3 °C 3.4 °C 1023.6 hPa Calm   6.1 km/h 88 % 0 mm
00:16 5.2 °C 3.4 °C 1023.6 hPa SSW 1.1 km/h 5 km/h 88 % 0 mm
00:21 5.1 °C 3.3 °C 1023.6 hPa SSW 1.1 km/h 5 km/h 88 % 0 mm
00:26 5.1 °C 3.3 °C 1023.6 hPa SSW 1.1 km/h 5 km/h 88 % 0 mm
00:31 5.1 °C 3.4 °C 1023.6 hPa SSW 3.5 km/h 7.2 km/h 89 % 0 mm
00:41 5.1 °C 3.4 °C 1023.2 hPa SW 1.1 km/h 7.2 km/h 89 % 0 mm
00:46 5.1 °C 3.4 °C 1023.6 hPa SSW 1.1 km/h 6.1 km/h 89 % 0 mm
00:51 5 °C 3.3 °C 1023.6 hPa Calm   6.1 km/h 89 % 0 mm
00:56 4.9 °C 3.2 °C 1023.2 hPa SSE 1.1 km/h 5 km/h 89 % 0 mm
01:01 4.9 °C 3.2 °C 1023.2 hPa SSW 2.6 km/h 6.1 km/h 89 % 0 mm
01:06 4.7 °C 3.2 °C 1023.6 hPa Calm   6.1 km/h 90 % 0 mm
01:11 4.6 °C 3.1 °C 1023.2 hPa Calm   3.5 km/h 90 % 0 mm
01:16 4.5 °C 3 °C 1023.2 hPa Calm   1.1 km/h 90 % 0 mm
01:21 4.4 °C 2.9 °C 1023.2 hPa SW 2.6 km/h 5 km/h 90 % 0 mm
01:26 4.4 °C 2.9 °C 1023.2 hPa SW 1.1 km/h 5 km/h 90 % 0 mm
01:30 3.9 °C 2.4 °C 1023.2 hPa Calm   2.6 km/h 90 % 0 mm
01:31 4.3 °C 2.8 °C 1023.2 hPa Calm   3.5 km/h 90 % 0 mm
01:32 3.9 °C 2.4 °C 1023.2 hPa Calm   1.1 km/h 90 % 0 mm
01:33 3.8 °C 2.3 °C 1023.2 hPa Calm   1.1 km/h 90 % 0 mm
01:34 3.8 °C 2.3 °C 1023.2 hPa Calm   1.1 km/h 90 % 0 mm
01:36 4.2 °C 2.7 °C 1023.2 hPa Calm   2.6 km/h 90 % 0 mm
01:37 3.7 °C 2.2 °C 1023.2 hPa Calm   2.6 km/h 90 % 0 mm
01:38 3.7 °C 2.4 °C 1023.2 hPa Calm   2.6 km/h 91 % 0 mm
01:39 3.7 °C 2.4 °C 1023.2 hPa Calm   2.6 km/h 91 % 0 mm
01:40 3.7 °C 2.4 °C 1023.2 hPa Calm   2.6 km/h 91 % 0 mm
01:41 4.1 °C 2.6 °C 1023.2 hPa Calm   2.6 km/h 90 % 0 mm
01:42 3.7 °C 2.4 °C 1023.2 hPa Calm   2.6 km/h 91 % 0 mm
01:43 3.7 °C 2.4 °C 1023.2 hPa Calm   2.6 km/h 91 % 0 mm
01:44 3.7 °C 2.4 °C 1023.2 hPa SW 1.1 km/h 3.5 km/h 91 % 0 mm
01:46 3.9 °C 2.4 °C 1023.2 hPa Calm   2.6 km/h 90 % 0 mm
01:51 3.8 °C 2.3 °C 1023.2 hPa Calm   1.1 km/h 90 % 0 mm
02:01 3.7 °C 2.4 °C 1023.2 hPa SW 1.1 km/h 3.5 km/h 91 % 0 mm
02:07 3.7 °C 2.4 °C 1022.9 hPa Calm   3.5 km/h 91 % 0 mm
02:12 3.8 °C 2.7 °C 1022.9 hPa SSW 2.6 km/h 6.1 km/h 92 % 0 mm
02:17 3.9 °C 2.7 °C 1022.9 hPa South 3.5 km/h 6.1 km/h 92 % 0 mm
02:22 4 °C 2.8 °C 1022.9 hPa SSW 1.1 km/h 6.1 km/h 92 % 0 mm
02:27 4.1 °C 3.1 °C 1022.9 hPa SSW 1.1 km/h 8.7 km/h 93 % 0 mm
02:32 4.1 °C 2.9 °C 1022.9 hPa SW 2.6 km/h 8.7 km/h 92 % 0 mm
02:37 4.1 °C 3.1 °C 1022.9 hPa SW 5 km/h 8.7 km/h 93 % 0 mm
02:42 4.2 °C 3.2 °C 1022.6 hPa SSW 3.5 km/h 8.7 km/h 93 % 0 mm
02:47 4.2 °C 3.2 °C 1022.6 hPa SSW 2.6 km/h 8.7 km/h 93 % 0 mm
02:52 4.2 °C 3.2 °C 1022.9 hPa SSW 5 km/h 8.7 km/h 93 % 0 mm
02:57 4.2 °C 3.2 °C 1022.6 hPa SSW 2.6 km/h 8.7 km/h 93 % 0 mm
03:02 4.2 °C 3.2 °C 1022.6 hPa SSW 5 km/h 9.7 km/h 93 % 0 mm
03:07 4.2 °C 3.3 °C 1022.6 hPa South 3.5 km/h 9.7 km/h 94 % 0 mm
03:12 4.2 °C 3.3 °C 1022.6 hPa SSW 2.6 km/h 8.7 km/h 94 % 0 mm
03:17 4.1 °C 3.2 °C 1022.6 hPa South 1.1 km/h 8.7 km/h 94 % 0 mm
03:22 4.1 °C 3.2 °C 1022.6 hPa South 5 km/h 7.2 km/h 94 % 0 mm
03:27 4.1 °C 3.2 °C 1022.6 hPa SSW 2.6 km/h 9.7 km/h 94 % 0 mm
03:37 3.9 °C 3.1 °C 1022.6 hPa SSE 3.5 km/h 7.2 km/h 94 % 0 mm
03:42 3.8 °C 2.9 °C 1022.6 hPa South 1.1 km/h 6.1 km/h 94 % 0 mm
03:47 3.8 °C 2.9 °C 1022.2 hPa SW 1.1 km/h 7.2 km/h 94 % 0 mm
03:52 3.7 °C 2.8 °C 1022.2 hPa WSW 2.6 km/h 7.2 km/h 94 % 0 mm
03:55 3.6 °C 2.9 °C 1021.9 hPa SW 3.5 km/h 8.7 km/h 95 % 0 mm
03:56 3.6 °C 2.9 °C 1022.2 hPa SW 2.6 km/h 8.7 km/h 95 % 0 mm
03:57 3.6 °C 2.8 °C 1022.2 hPa SW 1.1 km/h 7.2 km/h 94 % 0 mm
03:58 3.6 °C 2.9 °C 1022.2 hPa SSW 2.6 km/h 6.1 km/h 95 % 0 mm
03:59 3.6 °C 2.9 °C 1022.2 hPa SSW 2.6 km/h 6.1 km/h 95 % 0 mm
04:01 3.6 °C 2.9 °C 1022.2 hPa SSW 2.6 km/h 7.2 km/h 95 % 0 mm
04:02 3.6 °C 2.9 °C 1022.2 hPa SW 3.5 km/h 7.2 km/h 95 % 0 mm
04:03 3.6 °C 2.9 °C 1022.2 hPa SW 3.5 km/h 7.2 km/h 95 % 0 mm
04:04 3.6 °C 2.9 °C 1022.2 hPa SW 1.1 km/h 7.2 km/h 95 % 0 mm
04:06 3.6 °C 2.9 °C 1022.2 hPa SSW 3.5 km/h 7.2 km/h 95 % 0 mm
04:07 3.6 °C 2.9 °C 1021.9 hPa WSW 1.1 km/h 8.7 km/h 95 % 0 mm
04:08 3.6 °C 2.9 °C 1022.2 hPa SSW 3.5 km/h 7.2 km/h 96 % 0 mm
04:09 3.6 °C 2.9 °C 1022.2 hPa SSW 3.5 km/h 7.2 km/h 96 % 0 mm
04:11 3.6 °C 2.8 °C 1022.2 hPa SSW 3.5 km/h 7.2 km/h 95 % 0 mm
04:12 3.6 °C 2.9 °C 1021.9 hPa SW 3.5 km/h 8.7 km/h 95 % 0 mm
04:13 3.4 °C 2.8 °C 1022.2 hPa SSW 1.1 km/h 7.2 km/h 96 % 0 mm
04:14 3.6 °C 2.9 °C 1022.2 hPa SSW 1.1 km/h 7.2 km/h 96 % 0 mm
04:15 3.6 °C 2.9 °C 1022.2 hPa SSW 1.1 km/h 7.2 km/h 96 % 0 mm
04:16 3.6 °C 2.9 °C 1022.2 hPa SSW 2.6 km/h 7.2 km/h 96 % 0 mm
04:17 3.6 °C 2.9 °C 1022.2 hPa SSW 2.6 km/h 7.2 km/h 95 % 0 mm
04:18 3.4 °C 2.8 °C 1022.2 hPa SSW 5 km/h 7.2 km/h 96 % 0 mm
04:20 3.6 °C 2.9 °C 1022.2 hPa SW 1.1 km/h 7.2 km/h 96 % 0 mm
04:21 3.6 °C 2.9 °C 1022.2 hPa SW 1.1 km/h 7.2 km/h 96 % 0 mm
04:22 3.6 °C 2.9 °C 1022.2 hPa SSW 3.5 km/h 7.2 km/h 95 % 0 mm
04:23 3.4 °C 2.8 °C 1022.2 hPa SSW 2.6 km/h 7.2 km/h 96 % 0 mm
04:24 3.4 °C 2.8 °C 1022.2 hPa SW 1.1 km/h 7.2 km/h 96 % 0 mm
04:25 3.4 °C 2.8 °C 1022.2 hPa SW 2.6 km/h 7.2 km/h 96 % 0 mm
04:26 3.4 °C 2.8 °C 1022.2 hPa SW 1.1 km/h 7.2 km/h 96 % 0 mm
04:27 3.6 °C 2.9 °C 1022.2 hPa SSW 2.6 km/h 7.2 km/h 96 % 0 mm
04:32 3.6 °C 2.9 °C 1022.2 hPa SSW 2.6 km/h 7.2 km/h 96 % 0 mm
04:37 3.6 °C 2.9 °C 1022.2 hPa SW 1.1 km/h 7.2 km/h 96 % 0 mm
04:42 3.4 °C 2.8 °C 1022.2 hPa SW 2.6 km/h 7.2 km/h 96 % 0 mm
04:47 3.4 °C 2.8 °C 1022.2 hPa SW 2.6 km/h 7.2 km/h 96 % 0 mm
04:52 3.4 °C 2.8 °C 1022.2 hPa SW 2.6 km/h 7.2 km/h 96 % 0 mm
04:57 3.6 °C 3.1 °C 1022.2 hPa SW 2.6 km/h 7.2 km/h 97 % 0 mm
05:02 3.6 °C 3.1 °C 1022.2 hPa SW 2.6 km/h 7.2 km/h 97 % 0 mm
05:12 3.4 °C 3 °C 1022.2 hPa Calm   5 km/h 97 % 0 mm
05:22 3.3 °C 2.9 °C 1022.2 hPa SSW 1.1 km/h 5 km/h 97 % 0 mm
05:27 3.3 °C 2.9 °C 1022.2 hPa SSW 1.1 km/h 5 km/h 97 % 0 mm
05:32 3.2 °C 2.8 °C 1022.2 hPa SW 1.1 km/h 3.5 km/h 97 % 0 mm
05:43 3.1 °C 2.7 °C 1022.2 hPa Calm   2.6 km/h 97 % 0 mm
05:48 3.1 °C 2.6 °C 1022.2 hPa Calm   3.5 km/h 97 % 0 mm
05:53 3.1 °C 2.6 °C 1022.2 hPa SW 1.1 km/h 3.5 km/h 97 % 0 mm
06:03 3.1 °C 2.6 °C 1022.2 hPa Calm   3.5 km/h 97 % 0 mm
06:08 2.8 °C 2.4 °C 1022.2 hPa Calm   1.1 km/h 97 % 0 mm
06:13 2.7 °C 2.2 °C 1022.2 hPa Calm   1.1 km/h 97 % 0 mm
06:18 2.4 °C 2 °C 1022.2 hPa Calm   1.1 km/h 97 % 0 mm
06:23 2.3 °C 1.9 °C 1022.2 hPa Calm     97 % 0 mm
06:28 2.3 °C 1.8 °C 1022.2 hPa Calm     97 % 0 mm
06:33 2.2 °C 1.7 °C 1022.6 hPa Calm     97 % 0 mm
06:38 2.1 °C 1.6 °C 1022.6 hPa Calm     97 % 0 mm
06:43 1.9 °C 1.6 °C 1022.2 hPa Calm     97 % 0 mm
06:48 1.9 °C 1.4 °C 1022.6 hPa Calm     97 % 0 mm
06:53 1.9 °C 1.4 °C 1022.6 hPa Calm     97 % 0 mm
06:58 1.8 °C 1.3 °C 1022.6 hPa Calm     97 % 0 mm
07:03 1.7 °C 1.2 °C 1022.9 hPa Calm     97 % 0 mm
07:08 1.6 °C 1.2 °C 1022.9 hPa Calm     97 % 0 mm
07:13 1.6 °C 1.2 °C 1022.6 hPa Calm   1.1 km/h 97 % 0 mm
07:18 1.4 °C 1.1 °C 1022.6 hPa Calm   2.6 km/h 97 % 0 mm
07:28 1.6 °C 1.2 °C 1022.9 hPa Calm   2.6 km/h 97 % 0 mm
07:33 1.7 °C 1.2 °C 1022.9 hPa Calm   2.6 km/h 97 % 0 mm
07:38 1.8 °C 1.3 °C 1022.9 hPa Calm   3.5 km/h 97 % 0 mm
07:43 2.1 °C 1.8 °C 1022.9 hPa East 1.1 km/h 3.5 km/h 98 % 0 mm
07:48 2.3 °C 2.1 °C 1022.9 hPa ENE 2.6 km/h 5 km/h 98 % 0 mm
07:53 2.7 °C 2.4 °C 1023.2 hPa Calm   5 km/h 98 % 0 mm
07:58 2.9 °C 2.8 °C 1023.2 hPa Calm   5 km/h 99 % 0 mm
08:03 3.3 °C 3.2 °C 1022.9 hPa Calm   2.6 km/h 99 % 0 mm
08:08 3.7 °C 3.6 °C 1022.9 hPa Calm   2.6 km/h 99 % 0 mm
08:13 3.9 °C 3.8 °C 1023.2 hPa SSW 3.5 km/h 6.1 km/h 99 % 0 mm
08:16 4.2 °C 4.1 °C 1022.9 hPa Calm   6.1 km/h 99 % 0 mm
08:18 4 °C 3.9 °C 1022.9 hPa SW 2.6 km/h 6.1 km/h 99 % 0 mm
08:20 4.3 °C 4.2 °C 1022.9 hPa South 2.6 km/h 6.1 km/h 99 % 0 mm
08:22 4.3 °C 4.2 °C 1022.9 hPa SSE 1.1 km/h 6.1 km/h 99 % 0 mm
08:23 4.1 °C 4 °C 1022.9 hPa SSW 3.5 km/h 7.2 km/h 99 % 0 mm
08:27 4.5 °C 4.4 °C 1022.9 hPa SSE 3.5 km/h 6.1 km/h 99 % 0 mm
08:28 4.1 °C 4 °C 1022.9 hPa SSW 2.6 km/h 7.2 km/h 99 % 0 mm
08:31 4.7 °C 4.6 °C 1022.9 hPa Calm   6.1 km/h 99 % 0 mm
08:33 4.2 °C 4.1 °C 1022.9 hPa Calm   6.1 km/h 99 % 0 mm
08:36 4.8 °C 4.7 °C 1023.2 hPa SSW 1.1 km/h 6.1 km/h 99 % 0 mm
08:38 4.9 °C 4.8 °C 1023.2 hPa Calm   5 km/h 99 % 0 mm
08:39 4.3 °C 4.2 °C 1022.9 hPa SSE 1.1 km/h 6.1 km/h 99 % 0 mm
08:40 4.9 °C 4.8 °C 1022.9 hPa South 2.6 km/h 5 km/h 99 % 0 mm
08:41 4.9 °C 4.8 °C 1023.2 hPa South 1.1 km/h 5 km/h 99 % 0 mm
08:42 4.9 °C 4.8 °C 1023.2 hPa South 2.6 km/h 5 km/h 99 % 0 mm
08:43 5 °C 4.8 °C 1023.2 hPa South 2.6 km/h 5 km/h 99 % 0 mm
08:44 4.5 °C 4.4 °C 1022.9 hPa SSE 3.5 km/h 6.1 km/h 99 % 0 mm
08:45 5.1 °C 4.9 °C 1023.2 hPa SSE 2.6 km/h 5 km/h 99 % 0 mm
08:46 5.1 °C 4.9 °C 1023.2 hPa SSE 2.6 km/h 5 km/h 99 % 0 mm
08:47 5.1 °C 4.9 °C 1022.9 hPa SSE 2.6 km/h 5 km/h 99 % 0 mm
08:48 5.1 °C 4.9 °C 1023.2 hPa SSE 2.6 km/h 5 km/h 99 % 0 mm
08:49 4.7 °C 4.6 °C 1022.9 hPa Calm   6.1 km/h 99 % 0 mm
08:50 5.1 °C 4.9 °C 1023.2 hPa Calm   5 km/h 99 % 0 mm
08:52 5.2 °C 5.1 °C 1023.2 hPa SE 2.6 km/h 5 km/h 99 % 0 mm
08:53 5.3 °C 5.2 °C 1023.2 hPa SSE 1.1 km/h 5 km/h 99 % 0 mm
08:54 4.8 °C 4.7 °C 1023.2 hPa SSW 1.1 km/h 6.1 km/h 99 % 0 mm
08:55 5.5 °C 5.3 °C 1023.2 hPa SSE 2.6 km/h 5 km/h 99 % 0 mm
08:56 5.5 °C 5.3 °C 1023.2 hPa SSE 2.6 km/h 5 km/h 99 % 0 mm
08:57 5.5 °C 5.3 °C 1023.2 hPa Calm   5 km/h 99 % 0 mm
08:58 5.6 °C 5.4 °C 1023.2 hPa SSE 1.1 km/h 5 km/h 99 % 0 mm
08:59 4.9 °C 4.8 °C 1023.2 hPa South 2.6 km/h 5 km/h 99 % 0 mm
09:00 5.6 °C 5.4 °C 1023.2 hPa SSE 1.1 km/h 5 km/h 99 % 0 mm
09:01 5.7 °C 5.6 °C 1023.2 hPa SSE 1.1 km/h 5 km/h 99 % 0 mm
09:03 5.7 °C 5.6 °C 1023.2 hPa South 2.6 km/h 5 km/h 99 % 0 mm
09:04 5.1 °C 4.9 °C 1022.9 hPa SE 2.6 km/h 5 km/h 99 % 0 mm
09:09 5.2 °C 5.1 °C 1023.2 hPa SE 2.6 km/h 5 km/h 99 % 0 mm
09:14 5.5 °C 5.3 °C 1023.2 hPa Calm   5 km/h 99 % 0 mm
09:19 5.7 °C 5.6 °C 1023.2 hPa South 1.1 km/h 5 km/h 99 % 0 mm
09:24 5.8 °C 5.6 °C 1023.2 hPa South 3.5 km/h 6.1 km/h 99 % 0 mm
09:29 5.9 °C 5.7 °C 1022.9 hPa SSW 2.6 km/h 7.2 km/h 99 % 0 mm
09:34 6.4 °C 6.2 °C 1022.9 hPa SSW 1.1 km/h 7.2 km/h 99 % 0 mm
09:40 7.3 °C 7.1 °C 1022.9 hPa SE 2.6 km/h 13.4 km/h 99 % 0 mm
09:41 7.3 °C 7.1 °C 1022.9 hPa SE 2.6 km/h 13.4 km/h 99 % 0 mm
09:42 7.3 °C 7.2 °C 1022.6 hPa SE 1.1 km/h 9.7 km/h 99 % 0 mm
09:43 7.3 °C 7.2 °C 1022.9 hPa SE 2.6 km/h 8.7 km/h 99 % 0 mm
09:44 6.9 °C 6.8 °C 1022.9 hPa ESE 6.1 km/h 12.2 km/h 99 % 0 mm
09:45 7.4 °C 7.3 °C 1022.6 hPa SE 3.5 km/h 7.2 km/h 99 % 0 mm
09:46 7.4 °C 7.3 °C 1022.6 hPa SSE 3.5 km/h 7.2 km/h 99 % 0 mm
09:47 7.7 °C 7.5 °C 1022.6 hPa SSE 1.1 km/h 7.2 km/h 99 % 0 mm
09:48 7.7 °C 7.5 °C 1022.6 hPa SE 1.1 km/h 7.2 km/h 99 % 0 mm
09:49 7.2 °C 7 °C 1022.9 hPa ESE 6.1 km/h 13.4 km/h 99 % 0 mm
09:50 7.8 °C 7.7 °C 1022.6 hPa SE 2.6 km/h 8.7 km/h 99 % 0 mm
09:51 7.8 °C 7.7 °C 1022.6 hPa SE 2.6 km/h 8.7 km/h 99 % 0 mm
09:52 8.1 °C 7.7 °C 1022.6 hPa SSE 5 km/h 8.7 km/h 98 % 0 mm
09:54 7.2 °C 7 °C 1022.6 hPa ESE 1.1 km/h 13.4 km/h 99 % 0 mm
09:59 7.3 °C 7.2 °C 1022.6 hPa SE 1.1 km/h 8.7 km/h 99 % 0 mm
10:04 7.7 °C 7.5 °C 1022.6 hPa SSE 1.1 km/h 7.2 km/h 99 % 0 mm
10:09 8.1 °C 7.7 °C 1022.6 hPa SSE 5 km/h 8.7 km/h 98 % 0 mm
10:14 8.3 °C 7.9 °C 1022.6 hPa South 7.2 km/h 12.2 km/h 97 % 0 mm
10:19 8.3 °C 7.6 °C 1022.2 hPa SSW 3.5 km/h 12.2 km/h 95 % 0 mm
10:24 8.5 °C 7.6 °C 1022.2 hPa South 6.1 km/h 11.1 km/h 94 % 0 mm
10:29 8.4 °C 7.4 °C 1022.2 hPa South 5 km/h 12.2 km/h 93 % 0 mm
10:34 8.4 °C 7.4 °C 1022.2 hPa South 5 km/h 12.2 km/h 93 % 0 mm
10:39 8.5 °C 7.4 °C 1022.2 hPa SSW 7.2 km/h 11.1 km/h 93 % 0 mm
10:44 8.8 °C 7.8 °C 1022.2 hPa SSW 8.7 km/h 12.2 km/h 93 % 0 mm
10:49 8.9 °C 7.6 °C 1022.2 hPa SSW 11.1 km/h 14.8 km/h 91 % 0 mm
10:54 8.8 °C 7.3 °C 1022.2 hPa SSW 12.2 km/h 17.2 km/h 90 % 0 mm
10:59 9.2 °C 7.7 °C 1022.2 hPa SSW 5 km/h 17.2 km/h 90 % 0 mm
11:04 9.5 °C 7.4 °C 1022.2 hPa SSW 12.2 km/h 17.2 km/h 87 % 0 mm
11:09 9.7 °C 7.3 °C 1022.2 hPa SSW 6.1 km/h 17.2 km/h 85 % 0 mm
11:14 9.9 °C 7.3 °C 1022.2 hPa SSW 6.1 km/h 15.8 km/h 84 % 0 mm
11:19 10 °C 6.9 °C 1022.2 hPa SSW 8.7 km/h 18.3 km/h 81 % 0 mm
11:25 10.1 °C 7 °C 1022.2 hPa South 7.2 km/h 18.3 km/h 81 % 0 mm
11:30 10.2 °C 6.3 °C 1021.9 hPa SSW 11.1 km/h 20.9 km/h 77 % 0 mm
11:35 10.3 °C 6.4 °C 1021.9 hPa SSW 9.7 km/h 20.9 km/h 77 % 0 mm
11:40 10.5 °C 6.4 °C 1021.9 hPa SSW 12.2 km/h 18.3 km/h 76 % 0 mm
11:45 10.4 °C 5.9 °C 1021.9 hPa SSW 9.7 km/h 20.9 km/h 74 % 0 mm
11:50 10.5 °C 5.8 °C 1021.9 hPa SSW 7.2 km/h 20.9 km/h 73 % 0 mm
12:00 10.6 °C 5.6 °C 1021.6 hPa SSW 8.7 km/h 20.9 km/h 71 % 0 mm
12:01 10.7 °C 5 °C 1021.6 hPa South 7.2 km/h 24.5 km/h 68 % 0 mm
12:04 10.6 °C 5.3 °C 1021.6 hPa South 8.7 km/h 24.5 km/h 70 % 0 mm
12:05 10.7 °C 5.7 °C 1021.6 hPa SSW 9.7 km/h 20.9 km/h 71 % 0 mm
12:06 10.5 °C 5.2 °C 1021.6 hPa South 8.7 km/h 24.5 km/h 70 % 0 mm
12:08 10.5 °C 5.4 °C 1021.6 hPa South 11.1 km/h 24.5 km/h 71 % 0 mm
12:09 10.5 °C 5.4 °C 1021.6 hPa SSW 6.1 km/h 24.5 km/h 71 % 0 mm
12:10 10.8 °C 5.3 °C 1021.6 hPa SSW 9.7 km/h 15.8 km/h 69 % 0 mm
12:11 10.6 °C 5.7 °C 1021.6 hPa SSW 3.5 km/h 20.9 km/h 72 % 0 mm
12:12 10.7 °C 5.8 °C 1021.6 hPa SSW 7.2 km/h 20.9 km/h 72 % 0 mm
12:14 10.8 °C 5.7 °C 1021.2 hPa SSW 5 km/h 18.3 km/h 71 % 0 mm
12:15 10.9 °C 5.4 °C 1021.6 hPa South 11.1 km/h 20.9 km/h 69 % 0 mm
12:16 10.9 °C 5.8 °C 1021.2 hPa SSW 11.1 km/h 18.3 km/h 71 % 0 mm
12:18 11 °C 5.7 °C 1021.2 hPa SW 9.7 km/h 19.5 km/h 70 % 0 mm
12:20 10.7 °C 5.2 °C 1021.6 hPa South 12.2 km/h 24.5 km/h 69 % 0 mm
12:25 10.5 °C 5.4 °C 1021.6 hPa South 8.7 km/h 24.5 km/h 71 % 0 mm
12:30 10.8 °C 5.7 °C 1021.6 hPa SSW 2.6 km/h 18.3 km/h 71 % 0 mm
12:35 11 °C 5.7 °C 1021.2 hPa SW 9.7 km/h 19.5 km/h 70 % 0 mm
12:40 11.1 °C 5.6 °C 1021.2 hPa SW 12.2 km/h 19.5 km/h 69 % 0 mm
12:45 11.1 °C 5.6 °C 1021.2 hPa SSW 12.2 km/h 19.5 km/h 69 % 0 mm
12:50 11.2 °C 5.7 °C 1021.2 hPa South 5 km/h 18.3 km/h 69 % 0 mm
12:55 11.4 °C 5.8 °C 1020.9 hPa SSW 11.1 km/h 15.8 km/h 68 % 0 mm
13:00 11.7 °C 5.7 °C 1021.2 hPa SW 6.1 km/h 15.8 km/h 67 % 0 mm
13:05 11.4 °C 5.9 °C 1020.9 hPa South 9.7 km/h 17.2 km/h 69 % 0 mm
13:10 11 °C 5.3 °C 1020.9 hPa SSE 6.1 km/h 17.2 km/h 68 % 0 mm
13:15 10.8 °C 4.9 °C 1020.9 hPa SSE 2.6 km/h 17.2 km/h 67 % 0 mm
13:20 11.3 °C 5.2 °C 1020.9 hPa SSE 6.1 km/h 12.2 km/h 66 % 0 mm
13:25 11.7 °C 5.1 °C 1020.9 hPa SSE 12.2 km/h 18.3 km/h 64 % 0 mm
13:30 11.4 °C 5.1 °C 1020.9 hPa SSW 6.1 km/h 18.3 km/h 65 % 0 mm
13:35 11.2 °C 4.4 °C 1020.9 hPa South 5 km/h 18.3 km/h 63 % 0 mm
13:40 11.1 °C 4.3 °C 1020.5 hPa SSE 5 km/h 15.8 km/h 63 % 0 mm
13:45 11.7 °C 4.8 °C 1020.9 hPa South 7.2 km/h 13.4 km/h 63 % 0 mm
13:50 11.8 °C 4.5 °C 1020.5 hPa SSW 8.7 km/h 18.3 km/h 61 % 0 mm
13:55 11.4 °C 4.3 °C 1020.5 hPa South 8.7 km/h 18.3 km/h 62 % 0 mm
14:00 11.4 °C 4.3 °C 1020.9 hPa South 5 km/h 18.3 km/h 62 % 0 mm
14:04 11.4 °C 3.7 °C 1020.5 hPa SSW 7.2 km/h 13.4 km/h 59 % 0 mm
14:05 11.3 °C 4 °C 1020.5 hPa South 5 km/h 15.8 km/h 61 % 0 mm
14:06 11.6 °C 3.8 °C 1020.5 hPa South 3.5 km/h 12.2 km/h 59 % 0 mm
14:07 11.8 °C 4.3 °C 1020.5 hPa South 3.5 km/h 12.2 km/h 60 % 0 mm
14:08 11.8 °C 4.3 °C 1020.5 hPa South 6.1 km/h 12.2 km/h 60 % 0 mm
14:09 11.8 °C 4.3 °C 1020.5 hPa South 6.1 km/h 12.2 km/h 60 % 0 mm
14:10 11.3 °C 4.3 °C 1020.5 hPa South 7.2 km/h 15.8 km/h 62 % 0 mm
14:11 11.9 °C 4.4 °C 1020.5 hPa South 9.7 km/h 17.2 km/h 60 % 0 mm
14:12 11.8 °C 4.3 °C 1020.5 hPa South 8.7 km/h 17.2 km/h 60 % 0 mm
14:13 11.8 °C 4.6 °C 1020.5 hPa South 8.7 km/h 17.2 km/h 61 % 0 mm
14:14 11.8 °C 4.5 °C 1020.5 hPa South 12.2 km/h 21.9 km/h 61 % 0 mm
14:15 11.2 °C 3.7 °C 1020.9 hPa SSW 6.1 km/h 13.4 km/h 60 % 0 mm
14:25 11.8 °C 4.3 °C 1020.5 hPa South 6.1 km/h 12.2 km/h 60 % 0 mm
14:30 11.8 °C 4.6 °C 1020.5 hPa South 8.7 km/h 17.2 km/h 61 % 0 mm
14:36 11.3 °C 4.3 °C 1020.5 hPa South 9.7 km/h 21.9 km/h 62 % 0 mm
14:41 11.1 °C 4.3 °C 1020.5 hPa SSW 14.8 km/h 21.9 km/h 63 % 0 mm
14:46 10.9 °C 4.6 °C 1020.5 hPa SSW 6.1 km/h 19.5 km/h 65 % 0 mm
14:51 11.1 °C 4.7 °C 1020.5 hPa SSW 8.7 km/h 19.5 km/h 65 % 0 mm
14:56 11.2 °C 4.2 °C 1020.5 hPa South 8.7 km/h 20.9 km/h 62 % 0 mm
15:01 11.1 °C 4.3 °C 1020.5 hPa South 5 km/h 20.9 km/h 63 % 0 mm
15:06 11 °C 4 °C 1020.2 hPa SSE 9.7 km/h 17.2 km/h 62 % 0 mm
15:11 11 °C 4.4 °C 1020.5 hPa South 9.7 km/h 15.8 km/h 64 % 0 mm
15:21 10.9 °C 4.6 °C 1020.5 hPa South 7.2 km/h 20.9 km/h 65 % 0 mm
15:31 10.6 °C 4.7 °C 1020.5 hPa SSW 9.7 km/h 20.9 km/h 67 % 0 mm
15:36 10.4 °C 4.7 °C 1020.2 hPa SSW 7.2 km/h 20.9 km/h 68 % 0 mm
15:46 10.5 °C 5.1 °C 1020.5 hPa SW 5 km/h 15.8 km/h 69 % 0 mm
15:51 10.9 °C 5 °C 1020.2 hPa South 8.7 km/h 15.8 km/h 67 % 0 mm
15:56 11.1 °C 5.2 °C 1020.2 hPa SSW 8.7 km/h 18.3 km/h 67 % 0 mm
16:01 11 °C 4.9 °C 1020.2 hPa SSW 9.7 km/h 18.3 km/h 66 % 0 mm
16:06 10.9 °C 4.6 °C 1020.2 hPa SSW 9.7 km/h 18.3 km/h 65 % 0 mm
16:11 10.9 °C 4.8 °C 1020.2 hPa SSW 8.7 km/h 18.3 km/h 66 % 0 mm
16:16 10.9 °C 4.8 °C 1020.2 hPa SSW 12.2 km/h 21.9 km/h 66 % 0 mm
16:21 11 °C 5.3 °C 1020.2 hPa SSW 11.1 km/h 21.9 km/h 68 % 0 mm
16:26 10.9 °C 5.4 °C 1020.2 hPa SSW 7.2 km/h 19.5 km/h 69 % 0 mm
16:31 10.9 °C 5.6 °C 1020.2 hPa SSW 8.7 km/h 19.5 km/h 70 % 0 mm
16:36 10.7 °C 5.4 °C 1020.2 hPa South 13.4 km/h 21.9 km/h 70 % 0 mm
16:41 10.3 °C 5.4 °C 1019.9 hPa South 9.7 km/h 24.5 km/h 72 % 0 mm
16:46 10.2 °C 5.8 °C 1020.2 hPa SSW 9.7 km/h 24.5 km/h 74 % 0 mm
16:51 10.1 °C 6.1 °C 1020.2 hPa South 14.8 km/h 24.5 km/h 76 % 0 mm
16:56 9.9 °C 6.1 °C 1020.2 hPa South 6.1 km/h 20.9 km/h 77 % 0 mm
17:01 9.8 °C 5.8 °C 1020.2 hPa SSW 5 km/h 19.5 km/h 76 % 0 mm
17:06 9.7 °C 5.9 °C 1020.2 hPa SSW 9.7 km/h 20.9 km/h 77 % 0 mm
17:16 9.5 °C 5.9 °C 1020.2 hPa SSW 11.1 km/h 20.9 km/h 78 % 0 mm
17:21 9.3 °C 5.8 °C 1020.5 hPa SSW 11.1 km/h 19.5 km/h 79 % 0 mm
17:26 9.3 °C 5.8 °C 1020.5 hPa South 6.1 km/h 19.5 km/h 79 % 0 mm
17:31 9.2 °C 5.9 °C 1020.2 hPa SSW 14.8 km/h 25.6 km/h 80 % 0 mm
17:36 8.8 °C 5.6 °C 1020.5 hPa SSW 9.7 km/h 25.6 km/h 80 % 0 mm
17:41 8.5 °C 5.4 °C 1020.5 hPa South 12.2 km/h 25.6 km/h 81 % 0 mm
17:46 8.3 °C 5.6 °C 1020.9 hPa SSW 8.7 km/h 25.6 km/h 83 % 0 mm
17:52 8.1 °C 5.6 °C 1020.5 hPa SSW 7.2 km/h 20.9 km/h 84 % 0 mm
17:55 7.7 °C 6.1 °C 1020.9 hPa SSW 14.8 km/h 24.5 km/h 90 % 0 mm
17:56 7.7 °C 6.1 °C 1020.9 hPa SSW 14.8 km/h 24.5 km/h 90 % 0 mm
17:57 7.7 °C 6.1 °C 1020.9 hPa SSW 11.1 km/h 24.5 km/h 90 % 0 mm
17:58 7.7 °C 6.1 °C 1020.9 hPa SSW 7.2 km/h 24.5 km/h 90 % 0 mm
18:00 7.7 °C 6.3 °C 1020.9 hPa SSW 9.7 km/h 24.5 km/h 91 % 0 mm
18:01 7.7 °C 6.3 °C 1020.9 hPa SSW 9.7 km/h 24.5 km/h 91 % 0 mm
18:02 7.8 °C 6 °C 1020.9 hPa SSW 13.4 km/h 19.5 km/h 88 % 0 mm
18:03 7.6 °C 6.2 °C 1021.2 hPa SW 9.7 km/h 24.5 km/h 91 % 0 mm
18:04 7.6 °C 6.2 °C 1021.2 hPa SW 12.2 km/h 24.5 km/h 91 % 0 mm
18:05 7.6 °C 6.2 °C 1021.2 hPa SW 12.2 km/h 24.5 km/h 91 % 0 mm
18:06 7.4 °C 6.1 °C 1020.9 hPa SW 3.5 km/h 18.3 km/h 91 % 0 mm
18:07 7.7 °C 6.1 °C 1020.5 hPa SSW 7.2 km/h 21.9 km/h 89 % 0 mm
18:08 7.4 °C 6.1 °C 1021.2 hPa SW 7.2 km/h 17.2 km/h 91 % 0 mm
18:11 7.4 °C 6.1 °C 1020.9 hPa SSW 5 km/h 17.2 km/h 91 % 0 mm
18:13 7.3 °C 6 °C 1021.2 hPa SSW 7.2 km/h 17.2 km/h 91 % 0 mm
18:15 7.3 °C 6 °C 1021.2 hPa SSW 3.5 km/h 13.4 km/h 91 % 0 mm
18:17 7.7 °C 6.3 °C 1020.9 hPa SSW 9.7 km/h 24.5 km/h 91 % 0 mm
18:22 7.6 °C 6.2 °C 1021.2 hPa SW 12.2 km/h 24.5 km/h 91 % 0 mm
18:24 7.2 °C 5.9 °C 1021.2 hPa South 5 km/h 18.3 km/h 92 % 0 mm
18:25 7.1 °C 5.7 °C 1021.2 hPa South 5 km/h 18.3 km/h 91 % 0 mm
18:27 7.4 °C 6.1 °C 1021.2 hPa SSW 7.2 km/h 17.2 km/h 91 % 0 mm
18:29 7.1 °C 5.8 °C 1021.2 hPa South 5 km/h 18.3 km/h 92 % 0 mm
18:31 6.9 °C 5.7 °C 1021.2 hPa South 3.5 km/h 12.2 km/h 92 % 0 mm
18:32 7.3 °C 6 °C 1021.2 hPa SSW 3.5 km/h 13.4 km/h 91 % 0 mm
18:34 6.9 °C 5.7 °C 1021.6 hPa South 3.5 km/h 12.2 km/h 92 % 0 mm
18:37 6.9 °C 5.7 °C 1021.2 hPa South 5 km/h 11.1 km/h 92 % 0 mm
18:38 6.8 °C 5.7 °C 1021.2 hPa South 5 km/h 11.1 km/h 92 % 0 mm
18:40 6.8 °C 5.7 °C 1021.2 hPa SSW 5 km/h 11.1 km/h 92 % 0 mm
18:42 7.2 °C 5.9 °C 1021.2 hPa South 5 km/h 18.3 km/h 92 % 0 mm
18:47 7.1 °C 5.8 °C 1021.2 hPa South 3.5 km/h 12.2 km/h 92 % 0 mm
18:52 6.9 °C 5.7 °C 1021.6 hPa South 5 km/h 11.1 km/h 92 % 0 mm
18:57 6.8 °C 5.7 °C 1021.2 hPa SSW 5 km/h 11.1 km/h 92 % 0 mm
19:02 6.8 °C 5.8 °C 1021.6 hPa SSW 5 km/h 11.1 km/h 93 % 0 mm
19:07 6.8 °C 5.8 °C 1021.6 hPa SSW 11.1 km/h 14.8 km/h 93 % 0 mm
19:12 6.8 °C 5.8 °C 1021.6 hPa SSW 8.7 km/h 15.8 km/h 93 % 0 mm
19:22 6.8 °C 5.9 °C 1021.6 hPa SW 6.1 km/h 13.4 km/h 94 % 0 mm
19:27 6.8 °C 5.9 °C 1021.6 hPa SSW 6.1 km/h 17.2 km/h 94 % 0 mm
19:32 6.8 °C 5.9 °C 1021.6 hPa SW 6.1 km/h 17.2 km/h 94 % 0 mm
19:37 6.9 °C 6.2 °C 1021.6 hPa SSW 5 km/h 15.8 km/h 95 % 0 mm
19:42 6.9 °C 6.2 °C 1021.9 hPa SSW 5 km/h 14.8 km/h 95 % 0 mm
19:44 7.2 °C 6.3 °C 1021.6 hPa SW 8.7 km/h 13.4 km/h 94 % 0 mm
19:45 7.2 °C 6.3 °C 1021.6 hPa SW 8.7 km/h 13.4 km/h 94 % 0 mm
19:46 7.2 °C 6.3 °C 1021.6 hPa SW 8.7 km/h 13.4 km/h 94 % 0 mm
19:47 7.1 °C 6.3 °C 1021.6 hPa SW 6.1 km/h 13.4 km/h 95 % 0 mm
19:48 7.1 °C 6.2 °C 1021.6 hPa SW 6.1 km/h 13.4 km/h 94 % 0 mm
19:49 7.1 °C 6.2 °C 1021.6 hPa SW 6.1 km/h 13.4 km/h 94 % 0 mm
19:50 7.1 °C 6.2 °C 1021.6 hPa SW 6.1 km/h 13.4 km/h 94 % 0 mm
19:51 7.1 °C 6.2 °C 1021.6 hPa SW 5 km/h 13.4 km/h 94 % 0 mm
19:52 7.1 °C 6.3 °C 1021.6 hPa SSW 6.1 km/h 13.4 km/h 95 % 0 mm
19:54 7.1 °C 6.2 °C 1021.6 hPa SSW 8.7 km/h 12.2 km/h 94 % 0 mm
19:55 7.1 °C 6.2 °C 1021.6 hPa SSW 7.2 km/h 12.2 km/h 94 % 0 mm
19:56 7.1 °C 6.2 °C 1021.6 hPa SSW 5 km/h 12.2 km/h 94 % 0 mm
19:57 7.1 °C 6.2 °C 1021.6 hPa SSW 3.5 km/h 13.4 km/h 94 % 0 mm
19:59 7.2 °C 6.3 °C 1021.6 hPa SSW 7.2 km/h 12.2 km/h 94 % 0 mm
20:07 7.1 °C 6.2 °C 1021.6 hPa SW 6.1 km/h 13.4 km/h 94 % 0 mm
20:12 7.1 °C 6.2 °C 1021.6 hPa SSW 5 km/h 12.2 km/h 94 % 0 mm
20:17 7.1 °C 6.2 °C 1021.6 hPa SSW 7.2 km/h 13.4 km/h 94 % 0 mm
20:19 7.1 °C 6.2 °C 1021.2 hPa SSW 6.1 km/h 12.2 km/h 94 % 0 mm
20:21 7.1 °C 6.2 °C 1021.2 hPa SSW 6.1 km/h 11.1 km/h 94 % 0 mm
20:22 7.2 °C 6.3 °C 1021.6 hPa SSW 6.1 km/h 13.4 km/h 94 % 0 mm
20:23 7.1 °C 6.2 °C 1021.2 hPa SSW 6.1 km/h 11.1 km/h 94 % 0 mm
20:24 7.1 °C 6.2 °C 1021.2 hPa South 7.2 km/h 11.1 km/h 94 % 0 mm
20:25 7.1 °C 6 °C 1021.6 hPa South 5 km/h 11.1 km/h 93 % 0 mm
20:27 7.2 °C 6.3 °C 1021.6 hPa SSW 7.2 km/h 13.4 km/h 94 % 0 mm
20:29 6.9 °C 5.9 °C 1021.2 hPa South 3.5 km/h 9.7 km/h 93 % 0 mm
20:31 6.9 °C 5.9 °C 1021.6 hPa South 3.5 km/h 9.7 km/h 93 % 0 mm
20:32 7.1 °C 6.2 °C 1021.6 hPa SSW 7.2 km/h 13.4 km/h 94 % 0 mm
20:33 6.8 °C 5.9 °C 1021.2 hPa South 3.5 km/h 9.7 km/h 94 % 0 mm
20:35 6.8 °C 5.9 °C 1021.2 hPa South 3.5 km/h 9.7 km/h 94 % 0 mm
20:36 6.8 °C 5.9 °C 1021.6 hPa South 5 km/h 9.7 km/h 94 % 0 mm
20:37 7.1 °C 6.2 °C 1021.2 hPa SSW 6.1 km/h 11.1 km/h 94 % 0 mm
20:38 6.8 °C 5.9 °C 1021.6 hPa South 6.1 km/h 9.7 km/h 94 % 0 mm
20:42 7.1 °C 6 °C 1021.6 hPa South 5 km/h 11.1 km/h 93 % 0 mm
20:47 6.9 °C 5.9 °C 1021.6 hPa South 3.5 km/h 9.7 km/h 93 % 0 mm
20:53 6.8 °C 5.9 °C 1021.6 hPa South 3.5 km/h 9.7 km/h 94 % 0 mm
20:58 6.8 °C 5.9 °C 1021.6 hPa South 3.5 km/h 8.7 km/h 94 % 0 mm
21:03 6.6 °C 5.7 °C 1021.6 hPa South 2.6 km/h 8.7 km/h 94 % 0 mm
21:08 6.4 °C 5.6 °C 1021.6 hPa South 3.5 km/h 8.7 km/h 94 % 0 mm
21:13 6.4 °C 5.5 °C 1021.6 hPa South 3.5 km/h 6.1 km/h 94 % 0 mm
21:18 6.3 °C 5.4 °C 1021.6 hPa South 2.6 km/h 6.1 km/h 94 % 0 mm
21:28 6.2 °C 5.3 °C 1021.6 hPa South 2.6 km/h 5 km/h 94 % 0 mm
21:33 6.2 °C 5.3 °C 1021.2 hPa South 2.6 km/h 7.2 km/h 94 % 0 mm
21:38 6.2 °C 5.4 °C 1021.2 hPa SSW 2.6 km/h 7.2 km/h 95 % 0 mm
21:51 6 °C 5.4 °C 1021.2 hPa SW 5 km/h 9.7 km/h 96 % 0 mm
21:52 6 °C 5.4 °C 1021.2 hPa SW 5 km/h 9.7 km/h 96 % 0 mm
21:53 6 °C 5.2 °C 1021.6 hPa SSW 3.5 km/h 8.7 km/h 95 % 0 mm
21:57 5.9 °C 5.3 °C 1021.6 hPa SW 5 km/h 9.7 km/h 96 % 0 mm
21:59 5.9 °C 5.3 °C 1021.6 hPa SW 5 km/h 9.7 km/h 96 % 0 mm
22:00 5.9 °C 5.3 °C 1021.6 hPa SW 2.6 km/h 8.7 km/h 96 % 0 mm
22:03 6 °C 5.4 °C 1021.2 hPa SW 3.5 km/h 12.2 km/h 96 % 0 mm
22:06 5.8 °C 5.2 °C 1021.6 hPa SW 5 km/h 12.2 km/h 96 % 0 mm
22:07 5.8 °C 5.2 °C 1021.6 hPa SW 5 km/h 12.2 km/h 96 % 0 mm
22:08 5.8 °C 5.2 °C 1021.2 hPa SW 5 km/h 12.2 km/h 96 % 0 mm
22:10 5.8 °C 5.2 °C 1021.2 hPa SW 3.5 km/h 12.2 km/h 96 % 0 mm
22:11 5.6 °C 5 °C 1021.2 hPa SW 2.6 km/h 12.2 km/h 96 % 0 mm
22:16 5.6 °C 5 °C 1021.2 hPa SSW 3.5 km/h 12.2 km/h 96 % 0 mm
22:18 5.9 °C 5.3 °C 1021.2 hPa SW 2.6 km/h 8.7 km/h 96 % 0 mm
22:20 5.5 °C 4.9 °C 1021.6 hPa SSW 3.5 km/h 12.2 km/h 96 % 0 mm
22:23 5.8 °C 5.2 °C 1021.6 hPa SW 5 km/h 12.2 km/h 96 % 0 mm
22:24 5.4 °C 4.8 °C 1021.6 hPa South 3.5 km/h 8.7 km/h 96 % 0 mm
22:27 5.4 °C 4.8 °C 1021.2 hPa South 3.5 km/h 8.7 km/h 96 % 0 mm
22:28 5.6 °C 5 °C 1021.2 hPa SW 2.6 km/h 12.2 km/h 96 % 0 mm
22:33 5.6 °C 5 °C 1021.2 hPa SSW 3.5 km/h 12.2 km/h 96 % 0 mm
22:38 5.5 °C 4.9 °C 1021.2 hPa SSW 3.5 km/h 12.2 km/h 96 % 0 mm
22:43 5.4 °C 4.7 °C 1021.2 hPa South 3.5 km/h 8.7 km/h 95 % 0 mm
22:46 5 °C 4.4 °C 1021.2 hPa South 5 km/h 8.7 km/h 96 % 0 mm
22:48 5.3 °C 4.7 °C 1021.2 hPa SSW 5 km/h 9.7 km/h 96 % 0 mm
22:49 5 °C 4.4 °C 1021.2 hPa South 6.1 km/h 13.4 km/h 96 % 0 mm
22:51 5 °C 4.4 °C 1021.2 hPa South 3.5 km/h 13.4 km/h 96 % 0 mm
22:52 5 °C 4.4 °C 1021.2 hPa South 3.5 km/h 13.4 km/h 96 % 0 mm
22:53 5.2 °C 4.6 °C 1021.2 hPa SSW 5 km/h 9.7 km/h 96 % 0 mm
22:54 5 °C 4.4 °C 1021.2 hPa South 6.1 km/h 13.4 km/h 96 % 0 mm
22:55 5 °C 4.4 °C 1021.2 hPa SSW 2.6 km/h 13.4 km/h 96 % 0 mm
22:56 5 °C 4.4 °C 1021.2 hPa SSW 2.6 km/h 13.4 km/h 96 % 0 mm
22:57 5 °C 4.4 °C 1021.2 hPa SSW 2.6 km/h 13.4 km/h 96 % 0 mm
22:58 5.1 °C 4.5 °C 1021.2 hPa SSW 3.5 km/h 9.7 km/h 96 % 0 mm
22:59 5.1 °C 4.5 °C 1021.2 hPa SSW 3.5 km/h 13.4 km/h 96 % 0 mm
23:03 5 °C 4.4 °C 1021.2 hPa South 5 km/h 8.7 km/h 96 % 0 mm
23:08 5 °C 4.4 °C 1021.2 hPa South 3.5 km/h 13.4 km/h 96 % 0 mm
23:13 5 °C 4.4 °C 1021.2 hPa SSW 2.6 km/h 13.4 km/h 96 % 0 mm
23:18 5.1 °C 4.5 °C 1021.2 hPa SSW 5 km/h 9.7 km/h 96 % 0 mm
23:23 5.1 °C 4.5 °C 1021.2 hPa South 6.1 km/h 8.7 km/h 96 % 0 mm
23:28 5.3 °C 4.8 °C 1021.2 hPa South 5 km/h 9.7 km/h 97 % 0 mm
23:33 5.3 °C 4.8 °C 1020.9 hPa South 6.1 km/h 11.1 km/h 97 % 0 mm
23:38 5.4 °C 4.9 °C 1021.2 hPa South 3.5 km/h 11.1 km/h 97 % 0 mm
Ararat Weather
Compliments of Weather Underground - 2.5 mb
Click here to send mail.


ABOUT

Live weather data from Ararat, Victoria, Australia, 3377
Data uploaded from Cumulus every 5 minutes to Weather Underground.
This site then downloads the raw data for formatting and display.
Metric and imperial data can be displayed. Graphs and historical data available.
Includes Sun and Moon times and rain image live from BOM.

Check out Ararat Weather on Facebook, Twitter and Google +

Help support ongoing costs by checking out the ads





Follow @AraratWeather